sensor_id;sensor_type;location;lat;lon;timestamp;pressure;altitude;pressure_sealevel;temperature;humidity
33191;BME280;19554;42.652;23.364;2022-09-24T00:00:45;94977.81;;;10.00;51.76
33191;BME280;19554;42.652;23.364;2022-09-24T00:03:21;94980.22;;;9.91;51.99
33191;BME280;19554;42.652;23.364;2022-09-24T00:05:47;94979.97;;;9.87;51.99
33191;BME280;19554;42.652;23.364;2022-09-24T00:08:15;94928.16;;;9.54;52.04
33191;BME280;19554;42.652;23.364;2022-09-24T00:10:42;94972.31;;;9.76;51.66
33191;BME280;19554;42.652;23.364;2022-09-24T00:13:15;94956.91;;;9.62;52.27
33191;BME280;19554;42.652;23.364;2022-09-24T00:15:46;94912.25;;;9.34;52.43
33191;BME280;19554;42.652;23.364;2022-09-24T00:18:13;94976.09;;;9.64;53.01
33191;BME280;19554;42.652;23.364;2022-09-24T00:20:40;94969.19;;;9.58;52.18
33191;BME280;19554;42.652;23.364;2022-09-24T00:23:06;94973.69;;;9.63;52.02
33191;BME280;19554;42.652;23.364;2022-09-24T00:25:32;94957.47;;;9.49;52.45
33191;BME280;19554;42.652;23.364;2022-09-24T00:28:16;94899.50;;;9.15;52.19
33191;BME280;19554;42.652;23.364;2022-09-24T00:30:43;94975.84;;;9.61;52.16
33191;BME280;19554;42.652;23.364;2022-09-24T00:33:10;94972.91;;;9.52;52.45
33191;BME280;19554;42.652;23.364;2022-09-24T00:35:37;94967.34;;;9.48;52.55
33191;BME280;19554;42.652;23.364;2022-09-24T00:38:03;94965.50;;;9.44;52.34
33191;BME280;19554;42.652;23.364;2022-09-24T00:40:35;94961.75;;;9.45;53.44
33191;BME280;19554;42.652;23.364;2022-09-24T00:43:01;94949.00;;;9.37;53.72
33191;BME280;19554;42.652;23.364;2022-09-24T00:45:28;94939.44;;;9.31;53.25
33191;BME280;19554;42.652;23.364;2022-09-24T00:47:55;94957.50;;;9.39;53.23
33191;BME280;19554;42.652;23.364;2022-09-24T00:50:29;94943.13;;;9.30;53.57
33191;BME280;19554;42.652;23.364;2022-09-24T00:53:00;94974.53;;;9.43;53.51
33191;BME280;19554;42.652;23.364;2022-09-24T00:55:27;94958.03;;;9.36;53.38
33191;BME280;19554;42.652;23.364;2022-09-24T00:57:57;94966.53;;;9.48;53.50
33191;BME280;19554;42.652;23.364;2022-09-24T01:00:24;94958.00;;;9.51;53.27
33191;BME280;19554;42.652;23.364;2022-09-24T01:02:54;94893.66;;;9.08;54.23
33191;BME280;19554;42.652;23.364;2022-09-24T01:05:21;94878.25;;;8.95;54.06
33191;BME280;19554;42.652;23.364;2022-09-24T01:07:47;94951.34;;;9.48;54.04
33191;BME280;19554;42.652;23.364;2022-09-24T01:10:13;94952.16;;;9.49;53.88
33191;BME280;19554;42.652;23.364;2022-09-24T01:13:08;94953.72;;;9.50;53.90
33191;BME280;19554;42.652;23.364;2022-09-24T01:15:43;94952.19;;;9.44;54.43
33191;BME280;19554;42.652;23.364;2022-09-24T01:18:36;94953.75;;;9.45;53.38
33191;BME280;19554;42.652;23.364;2022-09-24T01:23:55;94947.94;;;9.33;53.52
33191;BME280;19554;42.652;23.364;2022-09-24T01:31:45;94953.31;;;9.17;54.51
33191;BME280;19554;42.652;23.364;2022-09-24T01:34:14;94949.59;;;9.13;54.94
33191;BME280;19554;42.652;23.364;2022-09-24T01:36:44;94957.03;;;9.11;55.06
33191;BME280;19554;42.652;23.364;2022-09-24T01:39:12;94953.59;;;9.11;53.47
33191;BME280;19554;42.652;23.364;2022-09-24T01:41:40;94946.13;;;9.08;54.34
33191;BME280;19554;42.652;23.364;2022-09-24T01:44:08;94944.25;;;9.08;54.77
33191;BME280;19554;42.652;23.364;2022-09-24T01:46:37;94958.38;;;9.14;54.31
33191;BME280;19554;42.652;23.364;2022-09-24T01:49:03;94951.72;;;9.16;54.28
33191;BME280;19554;42.652;23.364;2022-09-24T01:51:44;94961.28;;;9.17;54.36
33191;BME280;19554;42.652;23.364;2022-09-24T01:54:29;94962.09;;;9.18;54.39
33191;BME280;19554;42.652;23.364;2022-09-24T02:00:03;94966.34;;;9.09;54.69
33191;BME280;19554;42.652;23.364;2022-09-24T02:05:17;94967.44;;;8.87;54.30
33191;BME280;19554;42.652;23.364;2022-09-24T02:08:04;94947.22;;;8.71;54.34
33191;BME280;19554;42.652;23.364;2022-09-24T02:10:37;94905.44;;;8.30;55.05
33191;BME280;19554;42.652;23.364;2022-09-24T02:13:08;94980.50;;;8.68;55.14
33191;BME280;19554;42.652;23.364;2022-09-24T02:15:41;94978.91;;;8.62;55.18
33191;BME280;19554;42.652;23.364;2022-09-24T02:18:08;94978.91;;;8.57;55.10
33191;BME280;19554;42.652;23.364;2022-09-24T02:20:38;94983.16;;;8.63;54.86
33191;BME280;19554;42.652;23.364;2022-09-24T02:23:06;94893.19;;;8.09;54.94
33191;BME280;19554;42.652;23.364;2022-09-24T02:25:37;94990.59;;;8.71;55.63
33191;BME280;19554;42.652;23.364;2022-09-24T02:28:03;94994.88;;;8.67;55.87
33191;BME280;19554;42.652;23.364;2022-09-24T02:30:33;94977.56;;;8.60;55.52
33191;BME280;19554;42.652;23.364;2022-09-24T02:33:02;94908.91;;;8.11;54.60
33191;BME280;19554;42.652;23.364;2022-09-24T02:35:49;94998.06;;;8.59;54.55
33191;BME280;19554;42.652;23.364;2022-09-24T02:38:17;94990.06;;;8.49;55.72
33191;BME280;19554;42.652;23.364;2022-09-24T02:40:42;94992.19;;;8.42;54.72
33191;BME280;19554;42.652;23.364;2022-09-24T02:43:08;95004.72;;;8.51;54.78
33191;BME280;19554;42.652;23.364;2022-09-24T02:45:33;95006.03;;;8.54;55.70
33191;BME280;19554;42.652;23.364;2022-09-24T02:47:58;95010.81;;;8.57;55.18
33191;BME280;19554;42.652;23.364;2022-09-24T02:50:24;94955.16;;;8.20;55.16
33191;BME280;19554;42.652;23.364;2022-09-24T02:52:49;95011.88;;;8.51;54.81
33191;BME280;19554;42.652;23.364;2022-09-24T02:55:15;94990.53;;;8.30;55.05
33191;BME280;19554;42.652;23.364;2022-09-24T02:57:40;95013.41;;;8.37;55.46
33191;BME280;19554;42.652;23.364;2022-09-24T03:00:06;94995.28;;;8.13;56.27
33191;BME280;19554;42.652;23.364;2022-09-24T03:02:32;95005.41;;;8.16;56.85
33191;BME280;19554;42.652;23.364;2022-09-24T03:04:57;94985.13;;;8.00;56.97
33191;BME280;19554;42.652;23.364;2022-09-24T03:07:23;94991.56;;;8.04;56.82
33191;BME280;19554;42.652;23.364;2022-09-24T03:09:48;95011.53;;;8.22;56.10
33191;BME280;19554;42.652;23.364;2022-09-24T03:12:13;95007.56;;;8.24;56.09
33191;BME280;19554;42.652;23.364;2022-09-24T03:14:39;94972.41;;;7.97;56.71
33191;BME280;19554;42.652;23.364;2022-09-24T03:17:04;94987.81;;;8.05;56.68
33191;BME280;19554;42.652;23.364;2022-09-24T03:19:30;94979.31;;;8.03;56.66
33191;BME280;19554;42.652;23.364;2022-09-24T03:21:55;95006.47;;;8.20;56.87
33191;BME280;19554;42.652;23.364;2022-09-24T03:24:21;95016.56;;;8.23;55.94
33191;BME280;19554;42.652;23.364;2022-09-24T03:26:46;94998.22;;;8.12;56.46
33191;BME280;19554;42.652;23.364;2022-09-24T03:29:11;94967.06;;;7.92;56.45
33191;BME280;19554;42.652;23.364;2022-09-24T03:31:37;95018.97;;;8.20;56.13
33191;BME280;19554;42.652;23.364;2022-09-24T03:34:02;95015.50;;;8.14;55.14
33191;BME280;19554;42.652;23.364;2022-09-24T03:36:28;95020.81;;;8.14;55.30
33191;BME280;19554;42.652;23.364;2022-09-24T03:38:55;95022.41;;;8.15;55.61
33191;BME280;19554;42.652;23.364;2022-09-24T03:41:21;95022.38;;;8.10;55.78
33191;BME280;19554;42.652;23.364;2022-09-24T03:43:47;95030.38;;;8.15;55.86
33191;BME280;19554;42.652;23.364;2022-09-24T03:46:13;95014.13;;;8.01;56.43
33191;BME280;19554;42.652;23.364;2022-09-24T03:48:40;95016.00;;;8.06;55.13
33191;BME280;19554;42.652;23.364;2022-09-24T03:51:11;95032.50;;;8.13;54.67
33191;BME280;19554;42.652;23.364;2022-09-24T03:53:36;95028.25;;;8.12;54.60
33191;BME280;19554;42.652;23.364;2022-09-24T03:56:03;95037.25;;;8.06;54.10
33191;BME280;19554;42.652;23.364;2022-09-24T03:58:31;95023.94;;;7.96;55.75
33191;BME280;19554;42.652;23.364;2022-09-24T04:00:58;95041.75;;;7.95;55.69
33191;BME280;19554;42.652;23.364;2022-09-24T04:03:24;95015.38;;;7.73;55.89
33191;BME280;19554;42.652;23.364;2022-09-24T04:05:50;95035.03;;;7.82;56.31
33191;BME280;19554;42.652;23.364;2022-09-24T04:08:16;95043.28;;;7.86;56.42
33191;BME280;19554;42.652;23.364;2022-09-24T04:10:46;95039.84;;;7.86;55.94
33191;BME280;19554;42.652;23.364;2022-09-24T04:13:13;95043.28;;;7.86;57.17
33191;BME280;19554;42.652;23.364;2022-09-24T04:15:38;95020.13;;;7.66;56.99
33191;BME280;19554;42.652;23.364;2022-09-24T04:18:04;95038.75;;;7.76;57.31
33191;BME280;19554;42.652;23.364;2022-09-24T04:20:30;95035.00;;;7.72;56.84
33191;BME280;19554;42.652;23.364;2022-09-24T04:22:57;94973.69;;;7.26;57.72
33191;BME280;19554;42.652;23.364;2022-09-24T04:25:25;95047.53;;;7.77;58.13
33191;BME280;19554;42.652;23.364;2022-09-24T04:27:56;95056.28;;;7.77;57.94
33191;BME280;19554;42.652;23.364;2022-09-24T04:30:22;95051.81;;;7.88;57.30
33191;BME280;19554;42.652;23.364;2022-09-24T04:32:48;95060.91;;;8.02;57.95
33191;BME280;19554;42.652;23.364;2022-09-24T04:35:16;95057.00;;;8.25;56.79
33191;BME280;19554;42.652;23.364;2022-09-24T04:37:42;95065.31;;;8.44;54.97
33191;BME280;19554;42.652;23.364;2022-09-24T04:40:07;95023.03;;;8.43;55.24
33191;BME280;19554;42.652;23.364;2022-09-24T04:42:34;95060.91;;;8.86;54.26
33191;BME280;19554;42.652;23.364;2022-09-24T04:44:59;95063.03;;;9.04;53.38
33191;BME280;19554;42.652;23.364;2022-09-24T04:47:26;95066.75;;;9.34;51.61
33191;BME280;19554;42.652;23.364;2022-09-24T04:49:52;95016.66;;;9.25;51.81
33191;BME280;19554;42.652;23.364;2022-09-24T04:52:17;95052.28;;;9.76;50.41
33191;BME280;19554;42.652;23.364;2022-09-24T04:54:43;95061.84;;;9.92;50.95
33191;BME280;19554;42.652;23.364;2022-09-24T04:57:14;95061.75;;;10.12;50.69
33191;BME280;19554;42.652;23.364;2022-09-24T04:59:41;95056.63;;;10.36;49.66
33191;BME280;19554;42.652;23.364;2022-09-24T05:02:06;95048.81;;;10.50;49.61
33191;BME280;19554;42.652;23.364;2022-09-24T05:04:34;95035.41;;;10.60;49.10
33191;BME280;19554;42.652;23.364;2022-09-24T05:06:59;95059.78;;;10.83;49.48
33191;BME280;19554;42.652;23.364;2022-09-24T05:09:25;95058.69;;;10.89;48.84
33191;BME280;19554;42.652;23.364;2022-09-24T05:11:50;95062.56;;;10.67;49.42
33191;BME280;19554;42.652;23.364;2022-09-24T05:14:16;95050.22;;;10.77;49.21
33191;BME280;19554;42.652;23.364;2022-09-24T05:16:41;95046.59;;;10.97;49.45
33191;BME280;19554;42.652;23.364;2022-09-24T05:19:07;95054.63;;;11.31;49.25
33191;BME280;19554;42.652;23.364;2022-09-24T05:21:32;95054.88;;;11.58;48.55
33191;BME280;19554;42.652;23.364;2022-09-24T05:23:57;95054.13;;;11.82;47.94
33191;BME280;19554;42.652;23.364;2022-09-24T05:26:23;95056.78;;;12.11;46.88
33191;BME280;19554;42.652;23.364;2022-09-24T05:29:06;95056.19;;;12.38;46.32
33191;BME280;19554;42.652;23.364;2022-09-24T05:31:32;95056.50;;;12.55;46.11
33191;BME280;19554;42.652;23.364;2022-09-24T05:33:57;95060.03;;;12.70;45.90
33191;BME280;19554;42.652;23.364;2022-09-24T05:36:23;95051.88;;;12.80;45.42
33191;BME280;19554;42.652;23.364;2022-09-24T05:38:52;95064.56;;;12.31;46.12
33191;BME280;19554;42.652;23.364;2022-09-24T05:41:17;95064.47;;;12.18;46.29
33191;BME280;19554;42.652;23.364;2022-09-24T05:43:43;95068.50;;;11.62;48.21
33191;BME280;19554;42.652;23.364;2022-09-24T05:46:08;95075.91;;;11.70;48.44
33191;BME280;19554;42.652;23.364;2022-09-24T05:48:33;95081.16;;;11.51;49.03
33191;BME280;19554;42.652;23.364;2022-09-24T05:51:00;95078.34;;;11.67;49.06
33191;BME280;19554;42.652;23.364;2022-09-24T05:53:25;95087.53;;;11.55;49.49
33191;BME280;19554;42.652;23.364;2022-09-24T05:55:51;95070.72;;;11.79;49.91
33191;BME280;19554;42.652;23.364;2022-09-24T05:58:16;95080.56;;;12.13;48.92
33191;BME280;19554;42.652;23.364;2022-09-24T06:00:42;94993.53;;;11.96;47.51
33191;BME280;19554;42.652;23.364;2022-09-24T06:03:14;95074.38;;;12.79;46.51
33191;BME280;19554;42.652;23.364;2022-09-24T06:05:48;95073.88;;;12.77;46.97
33191;BME280;19554;42.652;23.364;2022-09-24T06:08:18;95080.53;;;12.98;46.06
33191;BME280;19554;42.652;23.364;2022-09-24T06:10:44;95074.94;;;13.14;45.37
33191;BME280;19554;42.652;23.364;2022-09-24T06:13:12;95085.88;;;12.98;45.58
33191;BME280;19554;42.652;23.364;2022-09-24T06:15:41;95082.41;;;13.17;46.08
33191;BME280;19554;42.652;23.364;2022-09-24T06:18:07;95018.66;;;13.14;45.72
33191;BME280;19554;42.652;23.364;2022-09-24T06:20:33;95087.97;;;13.39;45.22
33191;BME280;19554;42.652;23.364;2022-09-24T06:22:58;95088.97;;;13.43;45.12
33191;BME280;19554;42.652;23.364;2022-09-24T06:25:25;95087.91;;;13.25;45.61
33191;BME280;19554;42.652;23.364;2022-09-24T06:27:59;95088.56;;;13.69;45.32
33191;BME280;19554;42.652;23.364;2022-09-24T06:30:33;94996.53;;;13.41;44.31
33191;BME280;19554;42.652;23.364;2022-09-24T06:33:07;95087.59;;;13.92;44.60
33191;BME280;19554;42.652;23.364;2022-09-24T06:35:34;95084.50;;;13.85;45.00
33191;BME280;19554;42.652;23.364;2022-09-24T06:38:01;95090.75;;;13.94;45.07
33191;BME280;19554;42.652;23.364;2022-09-24T06:40:27;95096.25;;;14.17;44.75
33191;BME280;19554;42.652;23.364;2022-09-24T06:42:52;95096.41;;;14.53;43.91
33191;BME280;19554;42.652;23.364;2022-09-24T06:45:19;95094.72;;;14.93;42.75
33191;BME280;19554;42.652;23.364;2022-09-24T06:47:56;95092.38;;;14.78;43.14
33191;BME280;19554;42.652;23.364;2022-09-24T06:50:24;95090.41;;;14.70;42.42
33191;BME280;19554;42.652;23.364;2022-09-24T06:52:49;95096.16;;;14.50;42.85
33191;BME280;19554;42.652;23.364;2022-09-24T06:55:16;95095.47;;;14.30;43.51
33191;BME280;19554;42.652;23.364;2022-09-24T06:57:42;95098.84;;;14.22;43.99
33191;BME280;19554;42.652;23.364;2022-09-24T07:00:08;95090.75;;;13.94;44.58
33191;BME280;19554;42.652;23.364;2022-09-24T07:02:34;95100.69;;;13.80;45.23
33191;BME280;19554;42.652;23.364;2022-09-24T07:04:59;95094.47;;;13.98;45.15
33191;BME280;19554;42.652;23.364;2022-09-24T07:07:24;95102.94;;;14.47;43.73
33191;BME280;19554;42.652;23.364;2022-09-24T07:10:05;95095.38;;;14.63;43.50
33191;BME280;19554;42.652;23.364;2022-09-24T07:12:33;95104.69;;;14.79;43.56
33191;BME280;19554;42.652;23.364;2022-09-24T07:14:59;95097.94;;;15.18;42.79
33191;BME280;19554;42.652;23.364;2022-09-24T07:17:25;95100.34;;;15.42;42.10
33191;BME280;19554;42.652;23.364;2022-09-24T07:19:51;95094.13;;;15.41;42.25
33191;BME280;19554;42.652;23.364;2022-09-24T07:22:16;95094.78;;;15.38;42.04
33191;BME280;19554;42.652;23.364;2022-09-24T07:24:42;95093.09;;;15.06;42.49
33191;BME280;19554;42.652;23.364;2022-09-24T07:27:07;95093.38;;;14.68;43.30
33191;BME280;19554;42.652;23.364;2022-09-24T07:29:33;95087.16;;;14.96;42.85
33191;BME280;19554;42.652;23.364;2022-09-24T07:31:58;95084.59;;;14.77;43.36
33191;BME280;19554;42.652;23.364;2022-09-24T07:34:24;95091.97;;;14.71;43.60
33191;BME280;19554;42.652;23.364;2022-09-24T07:36:49;95093.34;;;14.82;43.32
33191;BME280;19554;42.652;23.364;2022-09-24T07:39:15;95093.69;;;15.03;43.61
33191;BME280;19554;42.652;23.364;2022-09-24T07:41:40;95088.09;;;15.13;42.80
33191;BME280;19554;42.652;23.364;2022-09-24T07:44:07;95083.69;;;15.17;42.89
33191;BME280;19554;42.652;23.364;2022-09-24T07:46:33;95017.34;;;14.68;42.58
33191;BME280;19554;42.652;23.364;2022-09-24T07:48:58;95078.97;;;15.23;42.27
33191;BME280;19554;42.652;23.364;2022-09-24T07:51:25;95078.94;;;15.59;41.26
33191;BME280;19554;42.652;23.364;2022-09-24T07:53:53;95078.97;;;15.91;40.56
33191;BME280;19554;42.652;23.364;2022-09-24T07:56:19;95075.63;;;16.25;39.81
33191;BME280;19554;42.652;23.364;2022-09-24T07:58:52;95078.53;;;16.46;39.01
33191;BME280;19554;42.652;23.364;2022-09-24T08:01:18;95073.44;;;16.35;39.24
33191;BME280;19554;42.652;23.364;2022-09-24T08:03:44;95072.78;;;16.21;40.15
33191;BME280;19554;42.652;23.364;2022-09-24T08:06:11;95064.63;;;16.61;39.30
33191;BME280;19554;42.652;23.364;2022-09-24T08:08:36;95069.00;;;16.97;38.56
33191;BME280;19554;42.652;23.364;2022-09-24T08:11:07;95069.38;;;16.64;38.42
33191;BME280;19554;42.652;23.364;2022-09-24T08:13:33;95073.84;;;16.20;39.51
33191;BME280;19554;42.652;23.364;2022-09-24T08:16:00;95064.00;;;15.76;39.97
33191;BME280;19554;42.652;23.364;2022-09-24T08:18:26;95073.19;;;15.52;40.83
33191;BME280;19554;42.652;23.364;2022-09-24T08:20:52;95076.78;;;15.48;40.55
33191;BME280;19554;42.652;23.364;2022-09-24T08:23:17;95069.47;;;15.39;41.00
33191;BME280;19554;42.652;23.364;2022-09-24T08:25:45;95070.31;;;15.71;41.04
33191;BME280;19554;42.652;23.364;2022-09-24T08:28:10;95071.25;;;16.06;40.62
33191;BME280;19554;42.652;23.364;2022-09-24T08:30:36;95071.53;;;15.96;40.11
33191;BME280;19554;42.652;23.364;2022-09-24T08:33:04;95066.75;;;16.24;39.94
33191;BME280;19554;42.652;23.364;2022-09-24T08:35:34;95056.88;;;16.11;40.28
33191;BME280;19554;42.652;23.364;2022-09-24T08:38:01;95005.63;;;15.85;39.78
33191;BME280;19554;42.652;23.364;2022-09-24T08:40:30;95064.13;;;16.50;39.41
33191;BME280;19554;42.652;23.364;2022-09-24T08:43:23;95049.88;;;16.50;39.92
33191;BME280;19554;42.652;23.364;2022-09-24T08:45:59;95008.81;;;15.96;39.65
33191;BME280;19554;42.652;23.364;2022-09-24T08:48:45;95062.78;;;16.30;39.85
33191;BME280;19554;42.652;23.364;2022-09-24T08:51:18;95059.34;;;16.39;39.72
33191;BME280;19554;42.652;23.364;2022-09-24T08:53:58;95056.41;;;16.66;39.16
33191;BME280;19554;42.652;23.364;2022-09-24T08:56:30;95057.81;;;16.55;39.29
33191;BME280;19554;42.652;23.364;2022-09-24T08:59:25;95035.44;;;16.54;38.68
33191;BME280;19554;42.652;23.364;2022-09-24T09:05:08;95048.88;;;16.37;38.45
33191;BME280;19554;42.652;23.364;2022-09-24T09:10:28;95040.06;;;16.71;38.56
33191;BME280;19554;42.652;23.364;2022-09-24T09:15:35;95031.38;;;16.74;38.31
33191;BME280;19554;42.652;23.364;2022-09-24T09:18:40;95033.94;;;16.97;37.55
33191;BME280;19554;42.652;23.364;2022-09-24T09:21:16;95027.44;;;17.07;37.05
33191;BME280;19554;42.652;23.364;2022-09-24T09:23:49;95023.91;;;17.32;36.20
33191;BME280;19554;42.652;23.364;2022-09-24T09:26:16;95030.72;;;17.29;36.28
33191;BME280;19554;42.652;23.364;2022-09-24T09:28:46;95033.75;;;17.45;35.79
33191;BME280;19554;42.652;23.364;2022-09-24T09:36:59;95018.28;;;17.63;34.64
33191;BME280;19554;42.652;23.364;2022-09-24T09:40:12;95021.44;;;17.83;34.29
33191;BME280;19554;42.652;23.364;2022-09-24T09:42:26;95007.31;;;17.86;34.21
33191;BME280;19554;42.652;23.364;2022-09-24T09:44:53;94953.28;;;17.39;34.69
33191;BME280;19554;42.652;23.364;2022-09-24T09:47:23;95008.34;;;18.02;34.24
33191;BME280;19554;42.652;23.364;2022-09-24T09:49:52;94998.09;;;17.69;35.35
33191;BME280;19554;42.652;23.364;2022-09-24T09:52:26;95006.84;;;17.66;35.40
33191;BME280;19554;42.652;23.364;2022-09-24T09:54:52;95000.69;;;17.57;35.62
33191;BME280;19554;42.652;23.364;2022-09-24T09:57:22;95003.06;;;17.59;35.54
33191;BME280;19554;42.652;23.364;2022-09-24T09:59:50;94980.19;;;17.56;35.74
33191;BME280;19554;42.652;23.364;2022-09-24T10:02:24;94989.63;;;17.33;36.08
33191;BME280;19554;42.652;23.364;2022-09-24T10:04:53;94978.03;;;17.41;36.42
33191;BME280;19554;42.652;23.364;2022-09-24T10:07:20;94908.94;;;17.10;36.26
33191;BME280;19554;42.652;23.364;2022-09-24T10:09:45;94983.06;;;17.60;35.91
33191;BME280;19554;42.652;23.364;2022-09-24T10:12:15;94967.28;;;17.70;35.73
33191;BME280;19554;42.652;23.364;2022-09-24T10:14:41;94974.91;;;17.86;35.15
33191;BME280;19554;42.652;23.364;2022-09-24T10:17:12;94967.47;;;17.65;35.46
33191;BME280;19554;42.652;23.364;2022-09-24T10:19:39;94963.94;;;17.73;35.24
33191;BME280;19554;42.652;23.364;2022-09-24T10:22:34;94958.19;;;17.92;34.46
33191;BME280;19554;42.652;23.364;2022-09-24T10:25:03;94953.75;;;17.88;34.67
33191;BME280;19554;42.652;23.364;2022-09-24T10:29:56;94963.44;;;18.18;33.72
33191;BME280;19554;42.652;23.364;2022-09-24T10:32:41;94966.84;;;18.07;33.93
33191;BME280;19554;42.652;23.364;2022-09-24T10:35:30;94932.97;;;17.88;33.52
33191;BME280;19554;42.652;23.364;2022-09-24T10:37:59;94955.44;;;18.01;34.06
33191;BME280;19554;42.652;23.364;2022-09-24T10:40:45;94951.06;;;18.17;33.97
33191;BME280;19554;42.652;23.364;2022-09-24T10:43:19;94949.75;;;18.23;34.17
33191;BME280;19554;42.652;23.364;2022-09-24T10:48:25;94950.28;;;18.38;33.43
33191;BME280;19554;42.652;23.364;2022-09-24T11:01:27;94935.25;;;18.28;32.00
33191;BME280;19554;42.652;23.364;2022-09-24T11:07:05;94945.75;;;18.00;31.91
33191;BME280;19554;42.652;23.364;2022-09-24T11:12:39;94937.03;;;17.94;32.72
33191;BME280;19554;42.652;23.364;2022-09-24T11:21:27;94919.81;;;18.29;31.56
33191;BME280;19554;42.652;23.364;2022-09-24T11:26:31;94905.47;;;18.37;29.99
33191;BME280;19554;42.652;23.364;2022-09-24T11:29:03;94897.28;;;18.45;30.07
33191;BME280;19554;42.652;23.364;2022-09-24T11:42:43;94889.44;;;19.07;29.02
33191;BME280;19554;42.652;23.364;2022-09-24T11:45:26;94882.75;;;18.92;29.48
33191;BME280;19554;42.652;23.364;2022-09-24T11:51:22;94880.78;;;19.01;27.91
33191;BME280;19554;42.652;23.364;2022-09-24T11:54:06;94885.50;;;19.04;28.05
33191;BME280;19554;42.652;23.364;2022-09-24T11:56:43;94888.00;;;19.09;27.36
33191;BME280;19554;42.652;23.364;2022-09-24T11:59:32;94871.09;;;19.12;27.27
33191;BME280;19554;42.652;23.364;2022-09-24T12:02:21;94862.97;;;19.12;26.65
33191;BME280;19554;42.652;23.364;2022-09-24T12:05:38;94858.47;;;19.04;27.26
33191;BME280;19554;42.652;23.364;2022-09-24T12:07:51;94865.63;;;18.88;27.02
33191;BME280;19554;42.652;23.364;2022-09-24T12:10:23;94864.97;;;18.91;27.68
33191;BME280;19554;42.652;23.364;2022-09-24T12:12:52;94866.31;;;18.97;27.24
33191;BME280;19554;42.652;23.364;2022-09-24T12:15:23;94857.75;;;19.07;27.55
33191;BME280;19554;42.652;23.364;2022-09-24T12:17:59;94853.59;;;19.10;27.91
33191;BME280;19554;42.652;23.364;2022-09-24T12:20:28;94864.78;;;19.21;27.93
33191;BME280;19554;42.652;23.364;2022-09-24T12:23:08;94861.66;;;19.31;28.05
33191;BME280;19554;42.652;23.364;2022-09-24T12:25:44;94847.44;;;19.34;26.92
33191;BME280;19554;42.652;23.364;2022-09-24T12:28:14;94876.78;;;19.44;27.26
33191;BME280;19554;42.652;23.364;2022-09-24T12:31:31;94809.06;;;19.07;27.16
33191;BME280;19554;42.652;23.364;2022-09-24T12:37:04;94853.44;;;19.39;27.21
33191;BME280;19554;42.652;23.364;2022-09-24T12:39:55;94860.53;;;19.44;27.08
33191;BME280;19554;42.652;23.364;2022-09-24T12:42:29;94860.88;;;19.55;27.66
33191;BME280;19554;42.652;23.364;2022-09-24T12:44:59;94868.25;;;19.67;27.55
33191;BME280;19554;42.652;23.364;2022-09-24T12:47:28;94872.75;;;19.62;27.08
33191;BME280;19554;42.652;23.364;2022-09-24T12:49:58;94851.28;;;19.57;27.05
33191;BME280;19554;42.652;23.364;2022-09-24T12:52:30;94860.13;;;19.67;26.34
33191;BME280;19554;42.652;23.364;2022-09-24T12:55:01;94844.06;;;19.61;26.56
33191;BME280;19554;42.652;23.364;2022-09-24T12:57:39;94853.59;;;19.68;26.74
33191;BME280;19554;42.652;23.364;2022-09-24T13:02:56;94847.44;;;19.58;26.89
33191;BME280;19554;42.652;23.364;2022-09-24T13:10:37;94835.94;;;19.61;27.30
33191;BME280;19554;42.652;23.364;2022-09-24T13:13:20;94845.00;;;19.65;26.80
33191;BME280;19554;42.652;23.364;2022-09-24T13:15:58;94833.16;;;19.70;26.61
33191;BME280;19554;42.652;23.364;2022-09-24T13:18:24;94831.25;;;19.71;26.47
33191;BME280;19554;42.652;23.364;2022-09-24T13:26:00;94768.28;;;19.37;27.11
33191;BME280;19554;42.652;23.364;2022-09-24T13:33:52;94838.66;;;19.86;27.00
33191;BME280;19554;42.652;23.364;2022-09-24T13:39:13;94823.44;;;19.94;27.01
33191;BME280;19554;42.652;23.364;2022-09-24T13:41:50;94818.81;;;19.94;26.76
33191;BME280;19554;42.652;23.364;2022-09-24T13:44:30;94815.63;;;19.92;26.72
33191;BME280;19554;42.652;23.364;2022-09-24T13:49:47;94818.34;;;19.92;27.04
33191;BME280;19554;42.652;23.364;2022-09-24T13:52:25;94807.28;;;19.97;26.88
33191;BME280;19554;42.652;23.364;2022-09-24T13:54:55;94817.44;;;19.88;26.62
33191;BME280;19554;42.652;23.364;2022-09-24T13:57:26;94806.16;;;19.86;26.65
33191;BME280;19554;42.652;23.364;2022-09-24T14:00:04;94809.09;;;19.81;26.51
33191;BME280;19554;42.652;23.364;2022-09-24T14:02:37;94784.63;;;19.65;26.81
33191;BME280;19554;42.652;23.364;2022-09-24T14:05:06;94787.69;;;19.63;26.94
33191;BME280;19554;42.652;23.364;2022-09-24T14:07:39;94796.91;;;19.75;26.92
33191;BME280;19554;42.652;23.364;2022-09-24T14:10:22;94793.78;;;19.73;27.17
33191;BME280;19554;42.652;23.364;2022-09-24T14:15:34;94738.63;;;19.28;27.35
33191;BME280;19554;42.652;23.364;2022-09-24T14:18:00;94799.63;;;19.62;27.19
33191;BME280;19554;42.652;23.364;2022-09-24T14:20:28;94740.53;;;19.15;27.40
33191;BME280;19554;42.652;23.364;2022-09-24T14:22:57;94808.78;;;19.46;27.92
33191;BME280;19554;42.652;23.364;2022-09-24T14:25:32;94795.22;;;19.33;27.93
33191;BME280;19554;42.652;23.364;2022-09-24T14:28:02;94803.69;;;19.32;28.27
33191;BME280;19554;42.652;23.364;2022-09-24T14:30:30;94780.91;;;19.21;27.99
33191;BME280;19554;42.652;23.364;2022-09-24T14:33:00;94796.00;;;19.34;28.43
33191;BME280;19554;42.652;23.364;2022-09-24T14:35:30;94780.34;;;19.27;28.39
33191;BME280;19554;42.652;23.364;2022-09-24T14:46:32;94796.47;;;19.48;29.38
33191;BME280;19554;42.652;23.364;2022-09-24T14:49:25;94802.78;;;19.52;29.02
33191;BME280;19554;42.652;23.364;2022-09-24T14:52:02;94804.38;;;19.53;28.23
33191;BME280;19554;42.652;23.364;2022-09-24T14:54:34;94802.78;;;19.52;28.22
33191;BME280;19554;42.652;23.364;2022-09-24T14:57:10;94794.00;;;19.43;28.15
33191;BME280;19554;42.652;23.364;2022-09-24T14:59:46;94759.25;;;19.21;28.14